Time,TemperatureF,DewpointF,PressureIn,WindDirection,WindDirectionDegrees,WindSpeedMPH,WindSpeedGustMPH,Humidity,HourlyPrecipIn,Conditions,Clouds,dailyrainin,SolarRadiationWatts/m^2,SoftwareType,DateUTC
2013-03-31 00:01:00,41.0,25.0,30.13,NW,315,3.0,4.0,52,-99.99,,,-99.99,-0.200000,,2013-03-31 06:01:00,
2013-03-31 00:11:00,39.0,25.0,30.13,North,9,2.0,4.0,57,-99.99,,,-99.99,-0.100000,,2013-03-31 06:11:00,
2013-03-31 00:21:00,38.0,25.0,30.13,ENE,64,4.0,4.0,60,-99.99,,,-99.99,0.000000,,2013-03-31 06:21:00,
2013-03-31 00:32:00,38.0,25.0,30.13,East,96,4.0,7.0,58,-99.99,,,-99.99,-0.200000,,2013-03-31 06:32:00,
2013-03-31 00:42:00,38.0,25.0,30.13,ENE,75,3.0,4.0,59,-99.99,,,-99.99,0.000000,,2013-03-31 06:42:00,
2013-03-31 00:52:00,37.0,25.0,30.13,East,99,4.0,5.0,60,-99.99,,,-99.99,0.000000,,2013-03-31 06:52:00,
2013-03-31 01:01:00,36.0,25.0,30.13,WSW,256,3.0,5.0,61,-99.99,,,-99.99,-0.100000,,2013-03-31 07:01:00,
2013-03-31 01:11:00,35.0,24.0,30.13,SW,226,2.0,2.0,63,-99.99,,,-99.99,0.100000,,2013-03-31 07:11:00,
2013-03-31 01:21:00,35.0,25.0,30.13,SE,125,4.0,6.0,65,-99.99,,,-99.99,0.000000,,2013-03-31 07:21:00,
2013-03-31 01:32:00,36.0,25.0,30.13,ESE,108,6.0,7.0,62,-99.99,,,-99.99,0.000000,,2013-03-31 07:32:00,
2013-03-31 01:42:00,36.0,25.0,30.12,East,82,4.0,5.0,63,-99.99,,,-99.99,-0.100000,,2013-03-31 07:42:00,
2013-03-31 01:52:00,35.0,25.0,30.12,East,101,4.0,5.0,66,-99.99,,,-99.99,0.000000,,2013-03-31 07:52:00,
2013-03-31 02:01:00,35.0,25.0,30.12,NE,52,2.0,3.0,66,-99.99,,,-99.99,0.000000,,2013-03-31 08:01:00,
2013-03-31 02:11:00,35.0,25.0,30.12,ENE,58,2.0,3.0,66,-99.99,,,-99.99,0.000000,,2013-03-31 08:11:00,
2013-03-31 02:21:00,34.0,24.0,30.12,East,89,3.0,4.0,67,-99.99,,,-99.99,-0.100000,,2013-03-31 08:21:00,
2013-03-31 02:31:00,34.0,24.0,30.12,East,87,3.0,3.0,68,-99.99,,,-99.99,0.000000,,2013-03-31 08:31:00,
2013-03-31 02:41:00,34.0,24.0,30.12,East,99,3.0,4.0,67,-99.99,,,-99.99,-0.100000,,2013-03-31 08:41:00,
2013-03-31 02:51:00,33.0,24.0,30.12,ESE,116,3.0,3.0,68,-99.99,,,-99.99,0.100000,,2013-03-31 08:51:00,
2013-03-31 03:01:00,33.0,24.0,30.12,SE,131,2.0,3.0,69,-99.99,,,-99.99,0.000000,,2013-03-31 09:01:00,
2013-03-31 03:11:00,33.0,24.0,30.11,ESE,114,2.0,3.0,68,-99.99,,,-99.99,-0.200000,,2013-03-31 09:11:00,
2013-03-31 03:21:00,33.0,24.0,30.11,East,101,5.0,6.0,69,-99.99,,,-99.99,0.000000,,2013-03-31 09:21:00,
2013-03-31 03:32:00,33.0,24.0,30.11,East,88,4.0,5.0,69,-99.99,,,-99.99,-0.100000,,2013-03-31 09:32:00,
2013-03-31 03:42:00,34.0,24.0,30.11,East,97,4.0,6.0,67,-99.99,,,-99.99,0.000000,,2013-03-31 09:42:00,
2013-03-31 03:52:00,31.0,23.0,30.10,East,100,6.0,7.0,72,-99.99,,,-99.99,-0.100000,,2013-03-31 09:52:00,
2013-03-31 04:03:00,32.0,23.0,30.10,ENE,76,5.0,6.0,70,-99.99,,,-99.99,0.000000,,2013-03-31 10:03:00,
2013-03-31 04:12:00,32.0,23.0,30.10,East,87,3.0,5.0,70,-99.99,,,-99.99,0.000000,,2013-03-31 10:12:00,
2013-03-31 04:22:00,31.0,23.0,30.10,East,96,4.0,6.0,72,-99.99,,,-99.99,-0.100000,,2013-03-31 10:22:00,
2013-03-31 04:32:00,31.0,23.0,30.09,East,96,5.0,7.0,72,-99.99,,,-99.99,0.000000,,2013-03-31 10:32:00,
2013-03-31 04:41:00,31.0,23.0,30.09,East,89,4.0,6.0,72,-99.99,,,-99.99,-0.100000,,2013-03-31 10:41:00,
2013-03-31 04:52:00,28.0,22.0,30.09,ESE,103,4.0,5.0,77,-99.99,,,-99.99,0.000000,,2013-03-31 10:52:00,
2013-03-31 05:02:00,29.0,23.0,30.09,ESE,110,7.0,9.0,77,-99.99,,,-99.99,-0.100000,,2013-03-31 11:02:00,
2013-03-31 05:11:00,28.0,22.0,30.09,South,180,3.0,5.0,77,-99.99,,,-99.99,-0.100000,,2013-03-31 11:11:00,
2013-03-31 05:32:00,33.0,24.0,30.09,ENE,59,5.0,8.0,69,-99.99,,,-99.99,-0.100000,,2013-03-31 11:32:00,
2013-03-31 05:42:00,31.0,23.0,30.09,NE,46,4.0,6.0,70,-99.99,,,-99.99,0.000000,,2013-03-31 11:42:00,
2013-03-31 05:51:00,30.0,23.0,30.09,ENE,60,4.0,4.0,73,-99.99,,,-99.99,-0.100000,,2013-03-31 11:51:00,
2013-03-31 06:02:00,28.0,22.0,30.09,ENE,64,4.0,5.0,76,-99.99,,,-99.99,0.000000,,2013-03-31 12:02:00,
2013-03-31 06:11:00,29.0,23.0,30.09,ENE,67,2.0,3.0,77,-99.99,,,-99.99,0.000000,,2013-03-31 12:11:00,
2013-03-31 06:21:00,30.0,23.0,30.09,East,93,3.0,4.0,74,-99.99,,,-99.99,0.000000,,2013-03-31 12:21:00,
2013-03-31 06:32:00,31.0,23.0,30.09,ESE,106,2.0,2.0,72,-99.99,,,-99.99,-0.100000,,2013-03-31 12:32:00,
2013-03-31 06:41:00,29.0,23.0,30.09,NW,323,2.0,2.0,77,-99.99,,,-99.99,0.000000,,2013-03-31 12:41:00,
2013-03-31 06:52:00,27.0,22.0,30.09,NNW,327,2.0,2.0,79,-99.99,,,-99.99,0.000000,,2013-03-31 12:52:00,
2013-03-31 07:02:00,28.0,22.0,30.09,East,86,2.0,2.0,79,-99.99,,,-99.99,0.000000,,2013-03-31 13:02:00,
2013-03-31 07:11:00,26.0,20.0,30.09,South,186,2.0,3.0,80,-99.99,,,-99.99,0.100000,,2013-03-31 13:11:00,
2013-03-31 07:21:00,26.0,21.0,30.09,SSW,208,3.0,3.0,82,-99.99,,,-99.99,1.000000,,2013-03-31 13:21:00,
2013-03-31 07:32:00,27.0,22.0,30.09,South,183,3.0,4.0,80,-99.99,,,-99.99,3.500000,,2013-03-31 13:32:00,
2013-03-31 07:41:00,27.0,22.0,30.09,SSW,195,3.0,4.0,81,-99.99,,,-99.99,8.400000,,2013-03-31 13:41:00,
2013-03-31 07:52:00,28.0,22.0,30.08,SE,134,3.0,3.0,79,-99.99,,,-99.99,25.900000,,2013-03-31 13:52:00,
2013-03-31 08:02:00,29.0,22.0,30.09,ESE,114,3.0,4.0,76,-99.99,,,-99.99,49.200001,,2013-03-31 14:02:00,
2013-03-31 08:11:00,29.0,23.0,30.09,East,99,3.0,4.0,76,-99.99,,,-99.99,81.099998,,2013-03-31 14:11:00,
2013-03-31 08:21:00,30.0,24.0,30.09,East,95,3.0,4.0,76,-99.99,,,-99.99,113.800003,,2013-03-31 14:21:00,
2013-03-31 08:32:00,31.0,25.0,30.09,SSE,165,3.0,4.0,76,-99.99,,,-99.99,143.300003,,2013-03-31 14:32:00,
2013-03-31 08:42:00,34.0,26.0,30.09,SW,214,3.0,4.0,73,-99.99,,,-99.99,173.600006,,2013-03-31 14:42:00,
2013-03-31 08:51:00,35.0,27.0,30.09,SW,227,2.0,3.0,72,-99.99,,,-99.99,205.500000,,2013-03-31 14:51:00,
2013-03-31 09:02:00,36.0,27.0,30.10,West,268,2.0,3.0,68,-99.99,,,-99.99,238.100006,,2013-03-31 15:02:00,
2013-03-31 09:11:00,37.0,27.0,30.10,WSW,254,2.0,3.0,66,-99.99,,,-99.99,271.000000,,2013-03-31 15:11:00,
2013-03-31 09:21:00,38.0,28.0,30.10,WSW,240,4.0,4.0,67,-99.99,,,-99.99,304.600006,,2013-03-31 15:21:00,
2013-03-31 09:33:00,39.0,29.0,30.10,WSW,242,4.0,5.0,66,-99.99,,,-99.99,338.000000,,2013-03-31 15:33:00,
2013-03-31 09:42:00,40.0,28.0,30.10,WSW,249,4.0,5.0,60,-99.99,,,-99.99,371.100006,,2013-03-31 15:42:00,
2013-03-31 09:53:00,41.0,28.0,30.10,WSW,245,4.0,5.0,59,-99.99,,,-99.99,404.000000,,2013-03-31 15:53:00,
2013-03-31 10:02:00,43.0,28.0,30.09,West,259,3.0,4.0,54,-99.99,,,-99.99,436.600006,,2013-03-31 16:02:00,
2013-03-31 10:12:00,44.0,27.0,30.09,NW,305,3.0,3.0,51,-99.99,,,-99.99,469.100006,,2013-03-31 16:12:00,
2013-03-31 10:22:00,45.0,28.0,30.09,NNW,329,3.0,5.0,50,-99.99,,,-99.99,499.500000,,2013-03-31 16:22:00,
2013-03-31 10:32:00,46.0,28.0,30.09,North,349,4.0,6.0,48,-99.99,,,-99.99,529.200012,,2013-03-31 16:32:00,
2013-03-31 10:42:00,47.0,27.0,30.09,North,5,4.0,5.0,46,-99.99,,,-99.99,558.900024,,2013-03-31 16:42:00,
2013-03-31 10:52:00,48.0,28.0,30.09,North,6,4.0,5.0,45,-99.99,,,-99.99,587.000000,,2013-03-31 16:52:00,
2013-03-31 11:02:00,49.0,28.0,30.09,North,5,3.0,6.0,44,-99.99,,,-99.99,614.500000,,2013-03-31 17:02:00,
2013-03-31 11:12:00,50.0,28.0,30.09,North,11,4.0,7.0,43,-99.99,,,-99.99,640.599976,,2013-03-31 17:12:00,
2013-03-31 11:21:00,51.0,29.0,30.09,NNE,14,4.0,6.0,42,-99.99,,,-99.99,665.900024,,2013-03-31 17:21:00,
2013-03-31 11:32:00,51.0,28.0,30.09,North,0,3.0,4.0,41,-99.99,,,-99.99,690.000000,,2013-03-31 17:32:00,
2013-03-31 11:42:00,53.0,29.0,30.08,North,354,2.0,5.0,39,-99.99,,,-99.99,713.299988,,2013-03-31 17:42:00,
2013-03-31 11:51:00,54.0,29.0,30.08,NW,318,3.0,6.0,37,-99.99,,,-99.99,735.099976,,2013-03-31 17:51:00,
2013-03-31 12:02:00,54.0,29.0,30.08,North,4,4.0,6.0,38,-99.99,,,-99.99,755.099976,,2013-03-31 18:02:00,
2013-03-31 12:12:00,56.0,29.0,30.08,North,352,5.0,7.0,35,-99.99,,,-99.99,772.900024,,2013-03-31 18:12:00,
2013-03-31 12:21:00,57.0,29.0,30.08,NNE,16,5.0,6.0,34,-99.99,,,-99.99,789.200012,,2013-03-31 18:21:00,
2013-03-31 12:32:00,58.0,28.0,30.08,North,8,3.0,4.0,31,-99.99,,,-99.99,807.000000,,2013-03-31 18:32:00,
2013-03-31 12:41:00,59.0,25.0,30.07,West,266,5.0,7.0,27,-99.99,,,-99.99,820.000000,,2013-03-31 18:41:00,
2013-03-31 12:52:00,59.0,24.0,30.07,SSE,164,3.0,6.0,25,-99.99,,,-99.99,832.000000,,2013-03-31 18:52:00,
2013-03-31 13:02:00,60.0,24.0,30.07,NW,326,3.0,7.0,25,-99.99,,,-99.99,840.000000,,2013-03-31 19:02:00,
2013-03-31 13:11:00,60.0,25.0,30.07,WSW,238,3.0,6.0,26,-99.99,,,-99.99,848.000000,,2013-03-31 19:11:00,
2013-03-31 13:21:00,61.0,24.0,30.06,WNW,283,7.0,13.0,23,-99.99,,,-99.99,854.000000,,2013-03-31 19:21:00,
2013-03-31 13:32:00,62.0,23.0,30.06,West,264,8.0,13.0,23,-99.99,,,-99.99,857.000000,,2013-03-31 19:32:00,
2013-03-31 13:42:00,62.0,24.0,30.06,West,264,5.0,8.0,23,-99.99,,,-99.99,862.000000,,2013-03-31 19:42:00,
2013-03-31 13:53:00,62.0,22.0,30.05,WNW,283,5.0,10.0,21,-99.99,,,-99.99,864.000000,,2013-03-31 19:53:00,
2013-03-31 14:02:00,62.0,21.0,30.05,NW,325,4.0,9.0,20,-99.99,,,-99.99,864.000000,,2013-03-31 20:02:00,
2013-03-31 14:11:00,61.0,21.0,30.04,NNE,20,4.0,7.0,21,-99.99,,,-99.99,862.000000,,2013-03-31 20:11:00,
2013-03-31 14:21:00,62.0,21.0,30.04,West,273,8.0,11.0,20,-99.99,,,-99.99,858.000000,,2013-03-31 20:21:00,
2013-03-31 14:32:00,63.0,20.0,30.04,WNW,288,5.0,9.0,19,-99.99,,,-99.99,850.000000,,2013-03-31 20:32:00,
2013-03-31 14:42:00,64.0,21.0,30.03,WNW,287,9.0,12.0,19,-99.99,,,-99.99,846.000000,,2013-03-31 20:42:00,
2013-03-31 14:52:00,64.0,16.0,30.03,West,274,8.0,11.0,15,-99.99,,,-99.99,837.000000,,2013-03-31 20:52:00,
2013-03-31 15:02:00,65.0,15.0,30.02,WSW,253,5.0,7.0,14,-99.99,,,-99.99,828.000000,,2013-03-31 21:02:00,
2013-03-31 15:11:00,65.0,16.0,30.02,WNW,294,8.0,11.0,15,-99.99,,,-99.99,816.000000,,2013-03-31 21:11:00,
2013-03-31 15:21:00,64.0,16.0,30.01,WNW,288,6.0,14.0,15,-99.99,,,-99.99,801.000000,,2013-03-31 21:21:00,
2013-03-31 15:33:00,65.0,18.0,30.01,WSW,252,9.0,15.0,15,-99.99,,,-99.99,783.400024,,2013-03-31 21:33:00,
2013-03-31 15:42:00,65.0,18.0,30.01,WSW,254,8.0,18.0,16,-99.99,,,-99.99,766.700012,,2013-03-31 21:42:00,
2013-03-31 15:53:00,65.0,17.0,30.00,West,264,8.0,12.0,15,-99.99,,,-99.99,747.500000,,2013-03-31 21:53:00,
2013-03-31 16:02:00,65.0,15.0,29.99,West,270,9.0,12.0,14,-99.99,,,-99.99,728.799988,,2013-03-31 22:02:00,
2013-03-31 16:12:00,65.0,17.0,29.99,West,263,10.0,15.0,15,-99.99,,,-99.99,706.500000,,2013-03-31 22:12:00,
2013-03-31 16:22:00,65.0,15.0,29.99,WSW,242,7.0,11.0,14,-99.99,,,-99.99,681.299988,,2013-03-31 22:22:00,
2013-03-31 16:32:00,66.0,16.0,29.98,WSW,238,6.0,10.0,14,-99.99,,,-99.99,658.500000,,2013-03-31 22:32:00,
2013-03-31 16:42:00,66.0,13.0,29.97,West,269,8.0,10.0,12,-99.99,,,-99.99,632.099976,,2013-03-31 22:42:00,
2013-03-31 16:52:00,66.0,11.0,29.97,WSW,244,6.0,11.0,11,-99.99,,,-99.99,606.299988,,2013-03-31 22:52:00,
2013-03-31 17:02:00,66.0,11.0,29.97,West,260,6.0,10.0,11,-99.99,,,-99.99,576.700012,,2013-03-31 23:02:00,
2013-03-31 17:12:00,67.0,13.0,29.96,WSW,257,8.0,13.0,12,-99.99,,,-99.99,547.299988,,2013-03-31 23:12:00,
2013-03-31 17:21:00,67.0,12.0,29.96,West,270,7.0,11.0,11,-99.99,,,-99.99,517.299988,,2013-03-31 23:21:00,
2013-03-31 17:31:00,66.0,12.0,29.95,NW,324,5.0,6.0,12,-99.99,,,-99.99,486.899994,,2013-03-31 23:31:00,
2013-03-31 17:41:00,66.0,13.0,29.95,West,276,6.0,8.0,12,-99.99,,,-99.99,451.399994,,2013-03-31 23:41:00,
2013-03-31 17:52:00,66.0,14.0,29.95,WNW,300,4.0,9.0,13,-99.99,,,-99.99,417.299988,,2013-03-31 23:52:00,
2013-03-31 18:02:00,66.0,14.0,29.94,NW,315,4.0,6.0,13,-99.99,,,-99.99,385.000000,,2013-04-01 00:02:00,
2013-03-31 18:11:00,66.0,14.0,29.94,NW,304,4.0,5.0,13,-99.99,,,-99.99,352.000000,,2013-04-01 00:11:00,
2013-03-31 18:21:00,66.0,14.0,29.94,NW,325,4.0,6.0,13,-99.99,,,-99.99,318.500000,,2013-04-01 00:21:00,
2013-03-31 18:31:00,66.0,14.0,29.93,North,10,7.0,11.0,13,-99.99,,,-99.99,284.899994,,2013-04-01 00:31:00,
2013-03-31 18:42:00,65.0,15.0,29.93,North,359,6.0,9.0,13,-99.99,,,-99.99,252.399994,,2013-04-01 00:42:00,
2013-03-31 18:52:00,65.0,14.0,29.93,NNE,17,8.0,9.0,13,-99.99,,,-99.99,219.300003,,2013-04-01 00:52:00,
2013-03-31 19:01:00,65.0,14.0,29.93,NE,38,6.0,8.0,13,-99.99,,,-99.99,185.500000,,2013-04-01 01:01:00,
2013-03-31 19:11:00,65.0,13.0,29.93,NNE,15,6.0,7.0,12,-99.99,,,-99.99,157.399994,,2013-04-01 01:11:00,
2013-03-31 19:21:00,65.0,14.0,29.92,NNE,13,6.0,8.0,14,-99.99,,,-99.99,128.100006,,2013-04-01 01:21:00,
2013-03-31 19:31:00,64.0,12.0,29.92,NNE,20,5.0,6.0,13,-99.99,,,-99.99,93.699997,,2013-04-01 01:31:00,
2013-03-31 19:42:00,64.0,12.0,29.92,NNE,18,6.0,8.0,13,-99.99,,,-99.99,59.700001,,2013-04-01 01:42:00,
2013-03-31 19:52:00,63.0,11.0,29.92,NNE,28,6.0,8.0,12,-99.99,,,-99.99,33.000000,,2013-04-01 01:52:00,
2013-03-31 20:02:00,62.0,9.0,29.92,NNE,30,6.0,9.0,12,-99.99,,,-99.99,12.000000,,2013-04-01 02:02:00,
2013-03-31 20:11:00,59.0,17.0,29.92,NE,45,7.0,8.0,18,-99.99,,,-99.99,3.700000,,2013-04-01 02:11:00,
2013-03-31 20:21:00,56.0,17.0,29.92,NE,54,7.0,9.0,21,-99.99,,,-99.99,0.900000,,2013-04-01 02:21:00,
2013-03-31 20:32:00,54.0,17.0,29.92,ENE,78,10.0,13.0,23,-99.99,,,-99.99,0.200000,,2013-04-01 02:32:00,
2013-03-31 20:42:00,53.0,18.0,29.92,East,85,9.0,13.0,25,-99.99,,,-99.99,0.000000,,2013-04-01 02:42:00,
2013-03-31 20:52:00,54.0,21.0,29.92,East,87,10.0,13.0,27,-99.99,,,-99.99,-0.100000,,2013-04-01 02:52:00,
2013-03-31 21:02:00,53.0,23.0,29.92,East,93,10.0,13.0,31,-99.99,,,-99.99,-0.100000,,2013-04-01 03:02:00,
2013-03-31 21:11:00,53.0,23.0,29.92,East,81,9.0,13.0,31,-99.99,,,-99.99,-0.100000,,2013-04-01 03:11:00,
2013-03-31 21:21:00,49.0,24.0,29.92,ENE,75,9.0,12.0,38,-99.99,,,-99.99,0.000000,,2013-04-01 03:21:00,
2013-03-31 21:33:00,49.0,25.0,29.92,ENE,63,9.0,11.0,38,-99.99,,,-99.99,0.000000,,2013-04-01 03:33:00,
2013-03-31 21:42:00,49.0,23.0,29.92,East,81,12.0,15.0,35,-99.99,,,-99.99,0.000000,,2013-04-01 03:42:00,
2013-03-31 21:52:00,51.0,20.0,29.92,East,89,10.0,14.0,30,-99.99,,,-99.99,-0.100000,,2013-04-01 03:52:00,
2013-03-31 22:02:00,51.0,20.0,29.92,East,87,10.0,12.0,29,-99.99,,,-99.99,-0.100000,,2013-04-01 04:02:00,
2013-03-31 22:12:00,48.0,21.0,29.92,ENE,77,11.0,12.0,33,-99.99,,,-99.99,-0.100000,,2013-04-01 04:12:00,
2013-03-31 22:23:00,47.0,22.0,29.92,ENE,61,8.0,9.0,36,-99.99,,,-99.99,0.000000,,2013-04-01 04:23:00,
2013-03-31 22:32:00,47.0,22.0,29.92,NE,54,4.0,6.0,38,-99.99,,,-99.99,-0.100000,,2013-04-01 04:32:00,
2013-03-31 22:42:00,45.0,23.0,29.93,SSE,149,2.0,4.0,40,-99.99,,,-99.99,0.000000,,2013-04-01 04:42:00,
2013-03-31 22:52:00,45.0,23.0,29.93,ESE,113,3.0,4.0,41,-99.99,,,-99.99,0.000000,,2013-04-01 04:52:00,
2013-03-31 23:02:00,45.0,24.0,29.93,East,87,5.0,7.0,42,-99.99,,,-99.99,0.000000,,2013-04-01 05:02:00,
2013-03-31 23:11:00,46.0,23.0,29.93,East,90,7.0,8.0,40,-99.99,,,-99.99,0.000000,,2013-04-01 05:11:00,
2013-03-31 23:21:00,44.0,24.0,29.92,East,98,7.0,10.0,45,-99.99,,,-99.99,-0.100000,,2013-04-01 05:21:00,
2013-03-31 23:32:00,44.0,25.0,29.92,East,95,9.0,12.0,47,-99.99,,,-99.99,-0.100000,,2013-04-01 05:32:00,
2013-03-31 23:42:00,48.0,24.0,29.92,East,88,9.0,12.0,39,-99.99,,,-99.99,0.000000,,2013-04-01 05:42:00,
2013-03-31 23:52:00,48.0,24.0,29.92,ENE,78,13.0,15.0,38,-99.99,,,-99.99,-0.100000,,2013-04-01 05:52:00,